createdAt,value
2022-08-26T00:00:07.452Z,0.00
2022-08-26T00:01:07.407Z,0.00
2022-08-26T00:02:07.507Z,0.00
2022-08-26T00:03:07.509Z,0.00
2022-08-26T00:04:07.444Z,0.00
2022-08-26T00:05:07.357Z,0.00
2022-08-26T00:06:07.310Z,0.00
2022-08-26T00:07:07.295Z,0.00
2022-08-26T00:08:07.276Z,0.00
2022-08-26T00:09:08.035Z,0.00
2022-08-26T00:10:07.268Z,0.00
2022-08-26T00:11:07.223Z,0.00
2022-08-26T00:12:07.203Z,0.00
2022-08-26T00:13:07.387Z,0.00
2022-08-26T00:14:07.164Z,0.00
2022-08-26T00:15:08.179Z,0.00
2022-08-26T00:16:07.165Z,0.00
2022-08-26T00:17:08.652Z,0.00
2022-08-26T00:18:16.734Z,0.00
2022-08-26T00:19:08.118Z,0.00
2022-08-26T00:20:07.086Z,0.00
2022-08-26T00:21:07.038Z,0.00
2022-08-26T00:22:07.017Z,0.00
2022-08-26T00:23:07.179Z,0.00
2022-08-26T00:24:06.984Z,0.00
2022-08-26T00:25:06.986Z,0.00
2022-08-26T00:26:06.943Z,0.00
2022-08-26T00:27:06.927Z,0.00
2022-08-26T00:28:06.905Z,0.00
2022-08-26T00:29:06.885Z,0.00
2022-08-26T00:30:06.896Z,0.00
2022-08-26T00:31:06.851Z,0.00
2022-08-26T00:32:06.901Z,0.00
2022-08-26T00:33:07.268Z,0.00
2022-08-26T00:34:06.793Z,0.00
2022-08-26T00:35:06.805Z,0.00
2022-08-26T00:36:06.764Z,0.00
2022-08-26T00:37:08.930Z,0.00
2022-08-26T00:38:06.719Z,0.00
2022-08-26T00:39:06.701Z,0.00
2022-08-26T00:40:06.753Z,0.00
2022-08-26T00:41:06.664Z,0.00
2022-08-26T00:42:06.645Z,0.00
2022-08-26T00:43:09.304Z,0.00
2022-08-26T00:44:06.608Z,0.00
2022-08-26T00:45:10.199Z,0.00
2022-08-26T00:46:07.613Z,0.00
2022-08-26T00:47:06.554Z,0.00
2022-08-26T00:48:06.535Z,0.00
2022-08-26T00:49:11.848Z,0.00
2022-08-26T00:50:07.521Z,0.00
2022-08-26T00:51:07.481Z,0.00
2022-08-26T00:52:06.460Z,0.00
2022-08-26T00:53:06.653Z,0.00
2022-08-26T00:54:06.427Z,0.00
2022-08-26T00:55:06.435Z,0.00
2022-08-26T00:56:06.390Z,0.00
2022-08-26T00:57:15.807Z,0.00
2022-08-26T00:58:07.352Z,0.00
2022-08-26T00:59:06.338Z,0.00
2022-08-26T01:00:06.339Z,0.00
2022-08-26T01:01:06.342Z,0.00
2022-08-26T01:02:06.299Z,0.00
2022-08-26T01:03:06.365Z,0.00
2022-08-26T01:04:07.246Z,0.00
2022-08-26T01:05:06.251Z,0.00
2022-08-26T01:06:06.212Z,0.00
2022-08-26T01:07:07.190Z,0.00
2022-08-26T01:08:06.172Z,0.00
2022-08-26T01:09:06.153Z,0.00
2022-08-26T01:10:06.162Z,0.00
2022-08-26T01:11:06.119Z,0.00
2022-08-26T01:12:06.099Z,0.00
2022-08-26T01:13:06.380Z,0.00
2022-08-26T01:14:06.062Z,0.00
2022-08-26T01:15:06.070Z,0.00
2022-08-26T01:16:06.049Z,0.00
2022-08-26T01:17:06.013Z,0.00
2022-08-26T01:18:05.987Z,0.00
2022-08-26T01:19:05.971Z,0.00
2022-08-26T01:20:06.072Z,0.00
2022-08-26T01:21:05.935Z,0.00
2022-08-26T01:22:05.919Z,0.00
2022-08-26T01:23:06.077Z,0.00
2022-08-26T01:24:05.879Z,0.00
2022-08-26T01:25:05.891Z,0.00
2022-08-26T01:26:05.844Z,0.00
2022-08-26T01:27:05.825Z,0.00
2022-08-26T01:28:05.813Z,0.00
2022-08-26T01:29:05.787Z,0.00
2022-08-26T01:30:05.841Z,0.00
2022-08-26T01:31:05.748Z,0.00
2022-08-26T01:32:05.733Z,0.00
2022-08-26T01:33:05.966Z,0.00
2022-08-26T01:34:05.694Z,0.00
2022-08-26T01:35:05.701Z,0.00
2022-08-26T01:36:05.658Z,0.00
2022-08-26T01:37:05.643Z,0.00
2022-08-26T01:38:05.620Z,0.00
2022-08-26T01:39:05.705Z,0.00
2022-08-26T01:40:05.690Z,0.00
2022-08-26T01:41:16.139Z,0.00
2022-08-26T01:42:06.542Z,0.00
2022-08-26T01:43:05.682Z,0.00
2022-08-26T01:44:05.510Z,0.00
2022-08-26T01:45:05.515Z,0.00
2022-08-26T01:46:05.515Z,0.00
2022-08-26T01:47:06.525Z,0.00
2022-08-26T01:48:05.435Z,0.00
2022-08-26T01:49:06.501Z,0.00
2022-08-26T01:50:05.431Z,0.00
2022-08-26T01:51:05.406Z,0.00
2022-08-26T01:52:05.360Z,0.00
2022-08-26T01:53:05.499Z,0.00
2022-08-26T01:54:05.335Z,0.00
2022-08-26T01:55:05.328Z,0.00
2022-08-26T01:56:05.282Z,0.00
2022-08-26T01:57:05.267Z,0.00
2022-08-26T01:58:05.311Z,0.00
2022-08-26T01:59:05.233Z,0.00
2022-08-26T02:00:05.240Z,0.00
2022-08-26T02:01:05.223Z,0.00
2022-08-26T02:02:05.170Z,0.00
2022-08-26T02:03:05.170Z,0.00
2022-08-26T02:04:05.139Z,0.00
2022-08-26T02:05:05.152Z,0.00
2022-08-26T02:06:05.102Z,0.00
2022-08-26T02:07:05.080Z,0.00
2022-08-26T02:08:05.061Z,0.00
2022-08-26T02:09:05.041Z,0.00
2022-08-26T02:10:05.051Z,0.00
2022-08-26T02:11:05.028Z,0.00
2022-08-26T02:12:04.990Z,0.00
2022-08-26T02:13:04.969Z,0.00
2022-08-26T02:14:04.962Z,0.00
2022-08-26T02:15:05.649Z,0.00
2022-08-26T02:16:04.957Z,0.00
2022-08-26T02:17:04.894Z,0.00
2022-08-26T02:18:04.871Z,0.00
2022-08-26T02:19:04.861Z,0.00
2022-08-26T02:20:04.865Z,0.00
2022-08-26T02:21:06.766Z,0.00
2022-08-26T02:22:04.796Z,0.00
2022-08-26T02:23:04.779Z,0.00
2022-08-26T02:24:04.772Z,0.00
2022-08-26T02:25:04.770Z,0.00
2022-08-26T02:26:04.721Z,0.00
2022-08-26T02:27:04.703Z,0.00
2022-08-26T02:28:04.692Z,0.00
2022-08-26T02:29:04.664Z,0.00
2022-08-26T02:30:04.672Z,0.00
2022-08-26T02:31:04.720Z,0.00
2022-08-26T02:32:04.605Z,0.00
2022-08-26T02:33:04.636Z,0.00
2022-08-26T02:34:04.571Z,0.00
2022-08-26T02:35:04.574Z,0.00
2022-08-26T02:36:04.543Z,0.00
2022-08-26T02:37:04.510Z,0.00
2022-08-26T02:38:10.214Z,0.00
2022-08-26T02:39:06.481Z,0.00
2022-08-26T02:40:04.536Z,0.00
2022-08-26T02:41:04.441Z,0.00
2022-08-26T02:42:04.445Z,0.00
2022-08-26T02:43:04.402Z,0.00
2022-08-26T02:44:04.378Z,0.00
2022-08-26T02:45:04.393Z,0.00
2022-08-26T02:46:04.338Z,0.00
2022-08-26T02:47:04.378Z,0.00
2022-08-26T02:48:04.305Z,0.00
2022-08-26T02:49:04.287Z,0.00
2022-08-26T02:50:04.292Z,0.00
2022-08-26T02:51:04.249Z,0.00
2022-08-26T02:52:04.227Z,0.00
2022-08-26T02:53:04.255Z,0.00
2022-08-26T02:54:04.190Z,0.00
2022-08-26T02:55:04.199Z,0.00
2022-08-26T02:56:04.155Z,0.00
2022-08-26T02:57:04.134Z,0.00
2022-08-26T02:58:04.113Z,0.00
2022-08-26T02:59:04.090Z,0.00
2022-08-26T03:00:04.101Z,0.00
2022-08-26T03:01:04.897Z,0.00
2022-08-26T03:02:04.077Z,0.00
2022-08-26T03:03:04.059Z,0.00
2022-08-26T03:04:04.004Z,0.00
2022-08-26T03:05:04.007Z,0.00
2022-08-26T03:06:03.962Z,0.00
2022-08-26T03:07:03.943Z,0.00
2022-08-26T03:08:03.925Z,0.00
2022-08-26T03:09:03.903Z,0.00
2022-08-26T03:10:08.136Z,0.00
2022-08-26T03:11:03.869Z,0.00
2022-08-26T03:12:03.848Z,0.00
2022-08-26T03:13:05.186Z,0.00
2022-08-26T03:14:03.879Z,0.00
2022-08-26T03:15:17.295Z,0.00
2022-08-26T03:16:04.804Z,0.00
2022-08-26T03:17:03.762Z,0.00
2022-08-26T03:18:03.745Z,0.00
2022-08-26T03:19:03.719Z,0.00
2022-08-26T03:20:03.739Z,0.00
2022-08-26T03:21:03.682Z,0.00
2022-08-26T03:22:03.664Z,0.00
2022-08-26T03:23:03.660Z,0.00
2022-08-26T03:24:03.628Z,0.00
2022-08-26T03:25:03.631Z,0.00
2022-08-26T03:26:03.587Z,0.00
2022-08-26T03:27:05.826Z,0.00
2022-08-26T03:28:03.552Z,0.00
2022-08-26T03:29:03.535Z,0.00
2022-08-26T03:30:03.541Z,0.00
2022-08-26T03:31:03.568Z,0.00
2022-08-26T03:32:03.474Z,0.00
2022-08-26T03:33:03.458Z,0.00
2022-08-26T03:34:03.438Z,0.00
2022-08-26T03:35:03.446Z,0.00
2022-08-26T03:36:03.397Z,0.00
2022-08-26T03:37:03.377Z,0.00
2022-08-26T03:38:03.363Z,0.00
2022-08-26T03:39:03.341Z,0.00
2022-08-26T03:40:03.417Z,0.00
2022-08-26T03:41:03.298Z,4.00
2022-08-26T03:42:03.285Z,4.00
2022-08-26T03:43:03.263Z,0.00
2022-08-26T03:44:03.415Z,0.00
2022-08-26T03:45:03.251Z,4.00
2022-08-26T03:46:03.236Z,4.00
2022-08-26T03:47:03.187Z,0.00
2022-08-26T03:48:03.167Z,4.00
2022-08-26T03:49:03.148Z,0.00
2022-08-26T03:50:03.163Z,4.00
2022-08-26T03:51:03.213Z,4.00
2022-08-26T03:52:03.121Z,4.00
2022-08-26T03:53:03.073Z,4.00
2022-08-26T03:54:03.068Z,8.00
2022-08-26T03:55:03.054Z,8.00
2022-08-26T03:56:03.014Z,8.00
2022-08-26T03:57:02.987Z,12.00
2022-08-26T03:58:02.971Z,12.00
2022-08-26T03:59:02.953Z,12.00
2022-08-26T04:00:02.934Z,20.00
2022-08-26T04:01:02.942Z,20.00
2022-08-26T04:02:02.956Z,24.00
2022-08-26T04:03:03.999Z,28.00
2022-08-26T04:04:03.274Z,32.00
2022-08-26T04:05:02.870Z,40.00
2022-08-26T04:06:02.817Z,44.00
2022-08-26T04:07:02.797Z,52.00
2022-08-26T04:08:02.775Z,60.00
2022-08-26T04:09:02.757Z,72.00
2022-08-26T04:10:02.742Z,84.00
2022-08-26T04:11:02.745Z,92.00
2022-08-26T04:12:02.700Z,112.00
2022-08-26T04:13:02.683Z,128.00
2022-08-26T04:14:02.668Z,156.00
2022-08-26T04:15:02.841Z,180.00
2022-08-26T04:16:02.721Z,208.00
2022-08-26T04:17:02.605Z,240.00
2022-08-26T04:18:02.587Z,272.00
2022-08-26T04:19:02.563Z,308.00
2022-08-26T04:20:02.554Z,348.00
2022-08-26T04:21:02.543Z,388.00
2022-08-26T04:22:04.502Z,428.00
2022-08-26T04:23:02.512Z,468.00
2022-08-26T04:24:03.651Z,512.00
2022-08-26T04:25:02.444Z,552.00
2022-08-26T04:26:02.452Z,592.00
2022-08-26T04:27:02.408Z,636.00
2022-08-26T04:28:02.388Z,680.00
2022-08-26T04:29:02.374Z,728.00
2022-08-26T04:30:02.353Z,772.00
2022-08-26T04:31:02.371Z,824.00
2022-08-26T04:32:02.308Z,876.00
2022-08-26T04:33:02.325Z,932.00
2022-08-26T04:34:02.270Z,1000.00
2022-08-26T04:35:02.250Z,1072.00
2022-08-26T04:36:02.256Z,1148.00
2022-08-26T04:37:02.214Z,1232.00
2022-08-26T04:38:02.194Z,1328.00
2022-08-26T04:39:02.171Z,1420.00
2022-08-26T04:40:02.254Z,1520.00
2022-08-26T04:41:02.161Z,1632.00
2022-08-26T04:42:02.114Z,1756.00
2022-08-26T04:43:02.148Z,1892.00
2022-08-26T04:44:02.077Z,2032.00
2022-08-26T04:45:02.059Z,2192.00
2022-08-26T04:46:02.126Z,2444.00
2022-08-26T04:47:02.020Z,2916.00
2022-08-26T04:48:01.996Z,3464.00
2022-08-26T04:49:01.980Z,3888.00
2022-08-26T04:50:02.120Z,4176.00
2022-08-26T04:51:01.966Z,4736.00
2022-08-26T04:52:01.931Z,5356.00
2022-08-26T04:53:01.941Z,5956.00
2022-08-26T04:54:01.885Z,6404.00
2022-08-26T04:55:01.877Z,7012.00
2022-08-26T04:56:01.883Z,7432.00
2022-08-26T04:57:01.823Z,7612.00
2022-08-26T04:58:01.799Z,7792.00
2022-08-26T04:59:01.785Z,8768.00
2022-08-26T05:00:01.767Z,9376.00
2022-08-26T05:01:01.768Z,9728.00
2022-08-26T05:02:01.805Z,9696.00
2022-08-26T05:03:01.794Z,8596.00
2022-08-26T05:04:01.770Z,10112.00
2022-08-26T05:05:01.668Z,11808.00
2022-08-26T05:06:01.677Z,11616.00
2022-08-26T05:07:02.883Z,11904.00
2022-08-26T05:08:01.615Z,12480.00
2022-08-26T05:09:01.627Z,11232.00
2022-08-26T05:10:01.580Z,7312.00
2022-08-26T05:11:01.586Z,5932.00
2022-08-26T05:12:01.543Z,6932.00
2022-08-26T05:13:01.578Z,8652.00
2022-08-26T05:14:02.252Z,10380.00
2022-08-26T05:15:02.486Z,11240.00
2022-08-26T05:16:01.601Z,12768.00
2022-08-26T05:17:01.457Z,13632.00
2022-08-26T05:18:01.433Z,14464.00
2022-08-26T05:19:01.415Z,15552.00
2022-08-26T05:20:01.393Z,15424.00
2022-08-26T05:21:01.399Z,13408.00
2022-08-26T05:22:01.355Z,13952.00
2022-08-26T05:23:01.357Z,15936.00
2022-08-26T05:24:01.315Z,16064.00
2022-08-26T05:25:01.295Z,17440.00
2022-08-26T05:26:01.305Z,21568.00
2022-08-26T05:27:01.263Z,28384.00
2022-08-26T05:28:01.248Z,33152.00
2022-08-26T05:29:01.222Z,33568.00
2022-08-26T05:30:01.206Z,31168.00
2022-08-26T05:31:01.274Z,29312.00
2022-08-26T05:32:01.174Z,31232.00
2022-08-26T05:33:01.146Z,30624.00
2022-08-26T05:34:03.592Z,27200.00
2022-08-26T05:35:01.118Z,19328.00
2022-08-26T05:36:01.128Z,16128.00
2022-08-26T05:37:01.079Z,16640.00
2022-08-26T05:38:01.062Z,16992.00
2022-08-26T05:39:01.045Z,20512.00
2022-08-26T05:40:01.059Z,23360.00
2022-08-26T05:41:01.033Z,25696.00
2022-08-26T05:42:00.986Z,31424.00
2022-08-26T05:43:00.968Z,36928.00
2022-08-26T05:44:00.955Z,39456.00
2022-08-26T05:45:00.934Z,39840.00
2022-08-26T05:46:00.944Z,41792.00
2022-08-26T05:47:00.901Z,42208.00
2022-08-26T05:48:00.882Z,43936.00
2022-08-26T05:49:00.863Z,44128.00
2022-08-26T05:50:00.847Z,42752.00
2022-08-26T05:51:00.862Z,42784.00
2022-08-26T05:52:00.813Z,43200.00
2022-08-26T05:53:00.793Z,46368.00
2022-08-26T05:54:00.776Z,45728.00
2022-08-26T05:55:00.769Z,44832.00
2022-08-26T05:56:00.769Z,44000.00
2022-08-26T05:57:00.726Z,43040.00
2022-08-26T05:58:02.677Z,42880.00
2022-08-26T05:59:00.681Z,43680.00
2022-08-26T06:00:00.679Z,43136.00
2022-08-26T06:01:00.687Z,40672.00
2022-08-26T06:02:00.652Z,41952.00
2022-08-26T06:03:00.658Z,43808.00
2022-08-26T06:04:00.596Z,44096.00
2022-08-26T06:05:00.578Z,47072.00
2022-08-26T06:06:00.599Z,48992.00
2022-08-26T06:07:00.545Z,50016.00
2022-08-26T06:08:00.526Z,48384.00
2022-08-26T06:09:00.505Z,48320.00
2022-08-26T06:10:21.620Z,48800.00
2022-08-26T06:11:02.507Z,48832.00
2022-08-26T06:12:00.457Z,50272.00
2022-08-26T06:13:04.398Z,50784.00
2022-08-26T06:14:03.739Z,51968.00
2022-08-26T06:15:01.405Z,51904.00
2022-08-26T06:16:00.440Z,51616.00
2022-08-26T06:17:00.378Z,51328.00
2022-08-26T06:18:00.354Z,54400.00
2022-08-26T06:19:00.337Z,58016.00
2022-08-26T06:20:00.322Z,58176.00
2022-08-26T06:21:00.331Z,58624.00
2022-08-26T06:22:00.287Z,59168.00
2022-08-26T06:23:00.268Z,60608.00
2022-08-26T06:24:00.253Z,62080.00
2022-08-26T06:25:00.238Z,62400.00
2022-08-26T06:26:00.245Z,65024.00
2022-08-26T06:27:00.207Z,66752.00
2022-08-26T06:28:00.189Z,64512.00
2022-08-26T06:29:00.175Z,62592.00
2022-08-26T06:30:00.162Z,61664.00
2022-08-26T06:31:00.235Z,59584.00
2022-08-26T06:32:00.122Z,57600.00
2022-08-26T06:33:00.107Z,55872.00
2022-08-26T06:34:00.092Z,54912.00
2022-08-26T06:35:00.075Z,54688.00
2022-08-26T06:36:00.096Z,58592.00
2022-08-26T06:37:01.328Z,60352.00
2022-08-26T06:38:00.028Z,60064.00
2022-08-26T06:39:00.008Z,57472.00
2022-08-26T06:40:00.021Z,57536.00
2022-08-26T06:41:00.007Z,59456.00
2022-08-26T06:41:59.963Z,59264.00
2022-08-26T06:42:59.948Z,60416.00
2022-08-26T06:43:59.938Z,59360.00
2022-08-26T06:44:59.943Z,58432.00
2022-08-26T06:46:00.015Z,57504.00
2022-08-26T06:46:59.884Z,57056.00
2022-08-26T06:47:59.876Z,56480.00
2022-08-26T06:48:59.848Z,59840.00
2022-08-26T06:49:59.836Z,62720.00
2022-08-26T06:50:59.819Z,64896.00
2022-08-26T06:51:59.872Z,65984.00
2022-08-26T06:52:59.790Z,67872.00
2022-08-26T06:53:59.778Z,67264.00
2022-08-26T06:54:59.758Z,67968.00
2022-08-26T06:55:59.748Z,68128.00
2022-08-26T06:56:59.755Z,67552.00
2022-08-26T06:57:59.712Z,67648.00
2022-08-26T06:58:59.698Z,68160.00
2022-08-26T06:59:59.682Z,69408.00
2022-08-26T07:01:03.771Z,69632.00
2022-08-26T07:02:01.723Z,67136.00
2022-08-26T07:02:59.689Z,66432.00
2022-08-26T07:03:59.624Z,65152.00
2022-08-26T07:04:59.604Z,66880.00
2022-08-26T07:05:59.590Z,61440.00
2022-08-26T07:06:59.603Z,50688.00
2022-08-26T07:07:59.561Z,47648.00
2022-08-26T07:08:59.545Z,42272.00
2022-08-26T07:09:59.536Z,39616.00
2022-08-26T07:10:59.518Z,39008.00
2022-08-26T07:11:59.531Z,44000.00
2022-08-26T07:12:59.487Z,47488.00
2022-08-26T07:13:59.469Z,47872.00
2022-08-26T07:14:59.457Z,52544.00
2022-08-26T07:16:03.033Z,52288.00
2022-08-26T07:16:59.458Z,59136.00
2022-08-26T07:17:59.412Z,55648.00
2022-08-26T07:18:59.388Z,62112.00
2022-08-26T07:20:00.381Z,67552.00
2022-08-26T07:20:59.369Z,72736.00
2022-08-26T07:21:59.379Z,64960.00
2022-08-26T07:22:59.333Z,59680.00
2022-08-26T07:24:01.620Z,60096.00
2022-08-26T07:25:00.300Z,65568.00
2022-08-26T07:25:59.282Z,73120.00
2022-08-26T07:26:59.301Z,67904.00
2022-08-26T07:27:59.257Z,51488.00
2022-08-26T07:28:59.420Z,45728.00
2022-08-26T07:29:59.227Z,40640.00
2022-08-26T07:30:59.289Z,39264.00
2022-08-26T07:31:59.226Z,46144.00
2022-08-26T07:32:59.189Z,48064.00
2022-08-26T07:33:59.166Z,50400.00
2022-08-26T07:34:59.157Z,54848.00
2022-08-26T07:35:59.132Z,61120.00
2022-08-26T07:36:59.163Z,62592.00
2022-08-26T07:37:59.102Z,61696.00
2022-08-26T07:38:59.094Z,62112.00
2022-08-26T07:39:59.128Z,74560.00
2022-08-26T07:40:59.060Z,81888.00
2022-08-26T07:41:59.073Z,83072.00
2022-08-26T07:42:59.029Z,82624.00
2022-08-26T07:43:59.009Z,80352.00
2022-08-26T07:44:59.000Z,77184.00
2022-08-26T07:45:58.976Z,79680.00
2022-08-26T07:46:58.987Z,77856.00
2022-08-26T07:47:58.941Z,78112.00
2022-08-26T07:48:58.966Z,76768.00
2022-08-26T07:49:58.919Z,75104.00
2022-08-26T07:50:58.900Z,77024.00
2022-08-26T07:51:58.908Z,78176.00
2022-08-26T07:52:58.880Z,79968.00
2022-08-26T07:53:58.852Z,82976.00
2022-08-26T07:54:58.836Z,85216.00
2022-08-26T07:55:58.821Z,84832.00
2022-08-26T07:56:58.835Z,83744.00
2022-08-26T07:57:58.795Z,82912.00
2022-08-26T07:58:58.777Z,81952.00
2022-08-26T07:59:58.761Z,83328.00
2022-08-26T08:00:58.743Z,83680.00
2022-08-26T08:01:58.809Z,83680.00
2022-08-26T08:02:58.714Z,81856.00
2022-08-26T08:03:58.699Z,76736.00
2022-08-26T08:04:58.829Z,74816.00
2022-08-26T08:05:58.674Z,72640.00
2022-08-26T08:06:58.682Z,73856.00
2022-08-26T08:08:00.811Z,73600.00
2022-08-26T08:08:59.627Z,72544.00
2022-08-26T08:09:58.607Z,66848.00
2022-08-26T08:10:58.588Z,56736.00
2022-08-26T08:11:58.602Z,56544.00
2022-08-26T08:12:58.562Z,58528.00
2022-08-26T08:13:58.551Z,56128.00
2022-08-26T08:14:58.534Z,51168.00
2022-08-26T08:15:58.515Z,50112.00
2022-08-26T08:16:58.571Z,51584.00
2022-08-26T08:18:00.647Z,51072.00
2022-08-26T08:18:59.470Z,47584.00
2022-08-26T08:19:58.452Z,45792.00
2022-08-26T08:21:10.835Z,58752.00
2022-08-26T08:21:59.454Z,66976.00
2022-08-26T08:22:58.406Z,65824.00
2022-08-26T08:23:58.404Z,67104.00
2022-08-26T08:24:58.387Z,62688.00
2022-08-26T08:25:58.366Z,56576.00
2022-08-26T08:26:58.377Z,54720.00
2022-08-26T08:27:58.327Z,49280.00
2022-08-26T08:28:58.312Z,45600.00
2022-08-26T08:29:58.328Z,48288.00
2022-08-26T08:30:58.297Z,49184.00
2022-08-26T08:31:59.900Z,51360.00
2022-08-26T08:32:58.277Z,53184.00
2022-08-26T08:33:58.263Z,51808.00
2022-08-26T08:34:58.225Z,56224.00
2022-08-26T08:35:58.210Z,71968.00
2022-08-26T08:36:58.216Z,72832.00
2022-08-26T08:37:58.173Z,71296.00
2022-08-26T08:38:58.160Z,64000.00
2022-08-26T08:39:58.186Z,65792.00
2022-08-26T08:40:58.125Z,69056.00
2022-08-26T08:41:58.137Z,57824.00
2022-08-26T08:42:58.129Z,35296.00
2022-08-26T08:43:58.077Z,35104.00
2022-08-26T08:44:58.060Z,56448.00
2022-08-26T08:45:58.103Z,61920.00
2022-08-26T08:46:58.074Z,58528.00
2022-08-26T08:47:58.037Z,61856.00
2022-08-26T08:48:57.997Z,59328.00
2022-08-26T08:49:57.991Z,59712.00
2022-08-26T08:50:57.999Z,53280.00
2022-08-26T08:51:57.974Z,41984.00
2022-08-26T08:52:57.937Z,36384.00
2022-08-26T08:53:57.916Z,31200.00
2022-08-26T08:54:57.931Z,28256.00
2022-08-26T08:55:57.887Z,24448.00
2022-08-26T08:56:57.903Z,26464.00
2022-08-26T08:58:01.659Z,24032.00
2022-08-26T08:58:57.840Z,23808.00
2022-08-26T08:59:57.818Z,26848.00
2022-08-26T09:00:57.834Z,26080.00
2022-08-26T09:01:57.835Z,31392.00
2022-08-26T09:02:57.768Z,37344.00
2022-08-26T09:03:57.751Z,45600.00
2022-08-26T09:04:57.748Z,53696.00
2022-08-26T09:05:57.715Z,62080.00
2022-08-26T09:07:57.683Z,61344.00
2022-08-26T09:08:57.694Z,63456.00
2022-08-26T09:09:57.648Z,66208.00
2022-08-26T09:10:57.688Z,68896.00
2022-08-26T09:11:57.678Z,69024.00
2022-08-26T09:12:57.599Z,66944.00
2022-08-26T09:13:57.585Z,64320.00
2022-08-26T09:14:57.562Z,62240.00
2022-08-26T09:15:57.543Z,62208.00
2022-08-26T09:16:57.618Z,67104.00
2022-08-26T09:17:57.514Z,66848.00
2022-08-26T09:18:57.496Z,62912.00
2022-08-26T09:19:57.492Z,62528.00
2022-08-26T09:20:58.460Z,64448.00
2022-08-26T09:21:57.469Z,65664.00
2022-08-26T09:22:57.436Z,65024.00
2022-08-26T09:23:57.407Z,62976.00
2022-08-26T09:24:57.414Z,61664.00
2022-08-26T09:25:57.413Z,61152.00
2022-08-26T09:26:57.381Z,61728.00
2022-08-26T09:27:57.335Z,57984.00
2022-08-26T09:28:57.318Z,59840.00
2022-08-26T09:29:57.299Z,58272.00
2022-08-26T09:30:57.334Z,58016.00
2022-08-26T09:31:57.290Z,62624.00
2022-08-26T09:32:57.246Z,56192.00
2022-08-26T09:33:57.248Z,53920.00
2022-08-26T09:34:57.209Z,56704.00
2022-08-26T09:35:57.198Z,56832.00
2022-08-26T09:36:57.217Z,45504.00
2022-08-26T09:37:57.163Z,26112.00
2022-08-26T09:38:57.139Z,19648.00
2022-08-26T09:39:57.187Z,19104.00
2022-08-26T09:40:59.246Z,18720.00
2022-08-26T09:41:57.132Z,18176.00
2022-08-26T09:42:57.082Z,18208.00
2022-08-26T09:43:57.051Z,17984.00
2022-08-26T09:44:57.048Z,17760.00
2022-08-26T09:45:59.513Z,17536.00
2022-08-26T09:46:58.101Z,17344.00
2022-08-26T09:47:56.984Z,17120.00
2022-08-26T09:48:56.967Z,16960.00
2022-08-26T09:49:56.954Z,16736.00
2022-08-26T09:50:56.939Z,16480.00
2022-08-26T09:51:56.941Z,16320.00
2022-08-26T09:52:56.909Z,16128.00
2022-08-26T09:53:56.885Z,16000.00
2022-08-26T09:54:56.869Z,15808.00
2022-08-26T09:55:56.848Z,15680.00
2022-08-26T09:56:56.865Z,15344.00
2022-08-26T09:57:57.524Z,15184.00
2022-08-26T09:58:56.800Z,15156.00
2022-08-26T09:59:56.775Z,15040.00
2022-08-26T10:00:56.853Z,15076.00
2022-08-26T10:01:56.873Z,15092.00
2022-08-26T10:02:58.135Z,15032.00
2022-08-26T10:03:57.764Z,14952.00
2022-08-26T10:04:56.689Z,14856.00
2022-08-26T10:05:56.681Z,14756.00
2022-08-26T10:06:56.690Z,14768.00
2022-08-26T10:07:56.635Z,14692.00
2022-08-26T10:08:56.620Z,14652.00
2022-08-26T10:09:56.609Z,14596.00
2022-08-26T10:10:56.584Z,14536.00
2022-08-26T10:11:56.595Z,14404.00
2022-08-26T10:12:56.554Z,14016.00
2022-08-26T10:13:56.530Z,13176.00
2022-08-26T10:14:56.520Z,12916.00
2022-08-26T10:15:56.502Z,12684.00
2022-08-26T10:16:56.639Z,13020.00
2022-08-26T10:17:56.462Z,13428.00
2022-08-26T10:18:59.918Z,13420.00
2022-08-26T10:19:57.899Z,13476.00
2022-08-26T10:20:57.412Z,13348.00
2022-08-26T10:21:56.424Z,13532.00
2022-08-26T10:22:56.379Z,13592.00
2022-08-26T10:23:56.363Z,13604.00
2022-08-26T10:24:56.359Z,13632.00
2022-08-26T10:25:58.932Z,13604.00
2022-08-26T10:26:56.343Z,13600.00
2022-08-26T10:27:56.303Z,13580.00
2022-08-26T10:28:56.277Z,13608.00
2022-08-26T10:29:56.264Z,13636.00
2022-08-26T10:30:56.286Z,13648.00
2022-08-26T10:32:02.422Z,13624.00
2022-08-26T10:32:57.206Z,13124.00
2022-08-26T10:33:58.852Z,13224.00
2022-08-26T10:34:57.178Z,13348.00
2022-08-26T10:35:56.162Z,13436.00
2022-08-26T10:37:13.937Z,13264.00
2022-08-26T10:37:58.131Z,13264.00
2022-08-26T10:38:56.106Z,13104.00
2022-08-26T10:39:58.664Z,12712.00
2022-08-26T10:40:57.080Z,12012.00
2022-08-26T10:41:56.084Z,12284.00
2022-08-26T10:42:56.043Z,12244.00
2022-08-26T10:43:56.017Z,11852.00
2022-08-26T10:44:58.593Z,11572.00
2022-08-26T10:45:56.047Z,11096.00
2022-08-26T10:46:56.004Z,10728.00
2022-08-26T10:47:55.964Z,10628.00
2022-08-26T10:48:55.937Z,10548.00
2022-08-26T10:50:00.420Z,10612.00
2022-08-26T10:50:57.896Z,10800.00
2022-08-26T10:51:55.912Z,10992.00
2022-08-26T10:52:55.857Z,10860.00
2022-08-26T10:53:55.854Z,10664.00
2022-08-26T10:54:55.824Z,10456.00
2022-08-26T10:55:55.832Z,10104.00
2022-08-26T10:56:55.816Z,10280.00
2022-08-26T10:57:55.770Z,10052.00
2022-08-26T10:58:55.752Z,9604.00
2022-08-26T10:59:55.739Z,9268.00
2022-08-26T11:00:55.873Z,9196.00
2022-08-26T11:01:55.736Z,9868.00
2022-08-26T11:02:55.723Z,10688.00
2022-08-26T11:03:57.943Z,11416.00
2022-08-26T11:04:55.646Z,11692.00
2022-08-26T11:05:55.632Z,11152.00
2022-08-26T11:06:55.641Z,11948.00
2022-08-26T11:07:55.598Z,12072.00
2022-08-26T11:08:55.577Z,12056.00
2022-08-26T11:09:55.553Z,11936.00
2022-08-26T11:10:55.540Z,11880.00
2022-08-26T11:11:55.554Z,11804.00
2022-08-26T11:12:55.505Z,11832.00
2022-08-26T11:13:55.493Z,11916.00
2022-08-26T11:14:59.065Z,11908.00
2022-08-26T11:15:55.448Z,11892.00
2022-08-26T11:16:55.508Z,11752.00
2022-08-26T11:17:55.408Z,11600.00
2022-08-26T11:18:55.404Z,11408.00
2022-08-26T11:20:01.478Z,11116.00
2022-08-26T11:20:57.359Z,10748.00
2022-08-26T11:21:55.372Z,10492.00
2022-08-26T11:22:55.322Z,10436.00
2022-08-26T11:23:55.307Z,11036.00
2022-08-26T11:24:55.293Z,11696.00
2022-08-26T11:25:55.267Z,12148.00
2022-08-26T11:26:56.693Z,12392.00
2022-08-26T11:27:55.236Z,12572.00
2022-08-26T11:28:55.219Z,12704.00
2022-08-26T11:29:55.195Z,12816.00
2022-08-26T11:30:58.132Z,12916.00
2022-08-26T11:31:56.325Z,12960.00
2022-08-26T11:32:55.148Z,13036.00
2022-08-26T11:33:55.130Z,13212.00
2022-08-26T11:34:55.131Z,13200.00
2022-08-26T11:35:55.093Z,13080.00
2022-08-26T11:36:55.108Z,13024.00
2022-08-26T11:37:55.060Z,12956.00
2022-08-26T11:38:55.049Z,12916.00
2022-08-26T11:39:57.195Z,12888.00
2022-08-26T11:40:56.004Z,12864.00
2022-08-26T11:41:54.992Z,12796.00
2022-08-26T11:42:55.000Z,12804.00
2022-08-26T11:43:54.964Z,12796.00
2022-08-26T11:44:56.190Z,12740.00
2022-08-26T11:45:54.956Z,12720.00
2022-08-26T11:46:54.906Z,12736.00
2022-08-26T11:47:54.915Z,12624.00
2022-08-26T11:48:54.867Z,12760.00
2022-08-26T11:49:54.849Z,12548.00
2022-08-26T11:50:54.832Z,12460.00
2022-08-26T11:51:54.813Z,12552.00
2022-08-26T11:52:54.851Z,12652.00
2022-08-26T11:53:54.779Z,12488.00
2022-08-26T11:54:54.778Z,12376.00
2022-08-26T11:55:54.741Z,12416.00
2022-08-26T11:56:54.725Z,12216.00
2022-08-26T11:57:54.730Z,12156.00
2022-08-26T11:58:54.706Z,12300.00
2022-08-26T11:59:54.674Z,12216.00
2022-08-26T12:00:54.655Z,12208.00
2022-08-26T12:01:54.638Z,12252.00
2022-08-26T12:02:54.643Z,12080.00
2022-08-26T12:03:54.644Z,12028.00
2022-08-26T12:04:54.644Z,11972.00
2022-08-26T12:05:54.568Z,11592.00
2022-08-26T12:06:54.547Z,11524.00
2022-08-26T12:07:54.556Z,11636.00
2022-08-26T12:08:54.514Z,11896.00
2022-08-26T12:09:54.490Z,12096.00
2022-08-26T12:10:54.477Z,12268.00
2022-08-26T12:11:55.632Z,12404.00
2022-08-26T12:12:54.467Z,12664.00
2022-08-26T12:13:54.425Z,12888.00
2022-08-26T12:14:54.406Z,12984.00
2022-08-26T12:15:56.000Z,13148.00
2022-08-26T12:16:54.456Z,13184.00